Time;durP1;ratioP1;P1;durP2;ratioP2;P2;SDS_P1;SDS_P2;PMS_P1;PMS_P2;Temp;Humidity;BMP_temperature;BMP_pressure;BME280_temperature;BME280_humidity;BME280_pressure;Samples;Min_cycle;Max_cycle;Signal;HPM_P1;HPM_P2
2022/06/02 00:01:01;;;;;;;9.77;5.35;;;;;;;;;;10474417;28;20029;-40
2022/06/02 00:06:22;;;;;;;10.13;4.78;;;;;;;;;;10466979;28;20056;-40
2022/06/02 00:11:59;;;;;;;7.82;5.07;;;;;;;;;;10475131;28;20052;-40
2022/06/02 00:17:21;;;;;;;11.03;4.77;;;;;;;;;;10462915;28;20021;-40
2022/06/02 00:22:46;;;;;;;8.23;4.53;;;;;;;;;;10453392;28;20081;-41
2022/06/02 00:28:11;;;;;;;9.95;4.88;;;;;;;;;;10482101;28;20055;-40
2022/06/02 00:33:24;;;;;;;12.48;4.70;;;;;;;;;;10472608;28;20039;-42
2022/06/02 00:38:38;;;;;;;8.70;4.32;;;;;;;;;;10483248;28;20024;-41
2022/06/02 00:44:02;;;;;;;15.20;4.20;;;;;;;;;;10490230;28;20036;-42
2022/06/02 00:49:37;;;;;;;10.43;4.47;;;;;;;;;;10481497;28;20029;-41
2022/06/02 01:00:36;;;;;;;6.63;4.50;;;;;;;;;;10466851;28;20037;-40
2022/06/02 01:06:06;;;;;;;9.68;4.07;;;;;;;;;;10472934;28;20036;-41
2022/06/02 01:11:28;;;;;;;11.48;4.38;;;;;;;;;;10469827;28;20029;-41
2022/06/02 01:17:02;;;;;;;5.70;4.30;;;;;;;;;;10479539;28;20037;-42
2022/06/02 01:22:38;;;;;;;5.65;3.92;;;;;;;;;;10480472;28;20622;-40
2022/06/02 01:28:01;;;;;;;13.57;4.38;;;;;;;;;;10464159;28;20381;-40
2022/06/02 01:33:35;;;;;;;12.27;4.20;;;;;;;;;;10473160;28;20111;-40
2022/06/02 01:38:50;;;;;;;7.50;3.97;;;;;;;;;;10459810;28;20135;-42
2022/06/02 01:43:54;;;;;;;6.32;3.97;;;;;;;;;;10482638;28;20535;-42
2022/06/02 01:49:22;;;;;;;9.85;3.90;;;;;;;;;;10490343;28;20059;-40
2022/06/02 01:55:08;;;;;;;6.20;4.03;;;;;;;;;;10491002;28;20028;-41
2022/06/02 02:00:25;;;;;;;19.65;3.78;;;;;;;;;;10481890;28;20048;-40
2022/06/02 02:05:42;;;;;;;7.65;4.30;;;;;;;;;;10487803;28;20035;-40
2022/06/02 02:11:07;;;;;;;6.00;3.75;;;;;;;;;;10464148;28;20554;-40
2022/06/02 02:16:37;;;;;;;7.75;3.88;;;;;;;;;;10487659;28;20028;-42
2022/06/02 02:21:57;;;;;;;5.95;3.83;;;;;;;;;;10473591;28;20104;-40
2022/06/02 02:33:26;;;;;;;5.85;4.15;;;;;;;;;;10480543;28;20614;-40
2022/06/02 02:38:40;;;;;;;4.53;3.45;;;;;;;;;;10466424;28;20060;-41
2022/06/02 02:44:12;;;;;;;5.00;3.30;;;;;;;;;;10465222;28;20386;-42
2022/06/02 02:49:46;;;;;;;6.68;3.78;;;;;;;;;;10439512;28;20068;-40
2022/06/02 02:55:18;;;;;;;3.97;3.20;;;;;;;;;;10468773;28;20430;-39
2022/06/02 03:00:33;;;;;;;4.90;3.63;;;;;;;;;;10451826;28;20163;-40
2022/06/02 03:06:15;;;;;;;5.63;3.55;;;;;;;;;;10462307;28;20416;-40
2022/06/02 03:11:53;;;;;;;5.10;3.28;;;;;;;;;;10453908;28;20028;-40
2022/06/02 03:17:23;;;;;;;;;;;;;;;;;;10489024;28;20028;-40
2022/06/02 03:22:48;;;;;;;7.63;3.72;;;;;;;;;;10465357;28;19916;-40
2022/06/02 03:28:11;;;;;;;6.13;3.30;;;;;;;;;;10470831;28;20072;-40
2022/06/02 03:33:37;;;;;;;8.45;3.65;;;;;;;;;;10473672;28;20574;-39
2022/06/02 03:38:51;;;;;;;6.32;3.63;;;;;;;;;;10469202;28;20036;-42
2022/06/02 03:44:14;;;;;;;7.22;3.75;;;;;;;;;;10486856;28;20049;-40
2022/06/02 03:49:39;;;;;;;6.13;3.67;;;;;;;;;;10485155;28;20040;-40
2022/06/02 03:55:00;;;;;;;6.07;3.65;;;;;;;;;;10480376;28;20038;-42
2022/06/02 04:00:26;;;;;;;6.93;3.67;;;;;;;;;;10485780;28;20044;-41
2022/06/02 04:05:35;;;;;;;5.85;3.47;;;;;;;;;;10466638;28;20094;-41
2022/06/02 04:11:03;;;;;;;6.07;3.42;;;;;;;;;;10487275;28;20024;-39
2022/06/02 04:17:00;;;;;;;5.40;3.00;;;;;;;;;;10462807;28;20361;-40
2022/06/02 04:22:24;;;;;;;6.88;3.33;;;;;;;;;;10460599;28;20075;-40
2022/06/02 04:27:43;;;;;;;3.40;3.10;;;;;;;;;;10488945;28;20083;-40
2022/06/02 04:33:16;;;;;;;5.32;3.15;;;;;;;;;;10488639;28;20024;-45
2022/06/02 04:38:59;;;;;;;5.00;3.33;;;;;;;;;;10464278;28;20036;-39
2022/06/02 04:44:26;;;;;;;4.38;3.40;;;;;;;;;;10483169;28;20055;-45
2022/06/02 04:49:59;;;;;;;4.13;3.20;;;;;;;;;;10491424;28;20037;-46
2022/06/02 04:55:43;;;;;;;6.60;3.40;;;;;;;;;;10467536;28;20040;-46
2022/06/02 05:00:57;;;;;;;5.07;3.10;;;;;;;;;;10482948;28;20040;-45
2022/06/02 05:06:32;;;;;;;6.30;3.65;;;;;;;;;;10492134;28;20028;-50
2022/06/02 05:12:12;;;;;;;5.50;3.35;;;;;;;;;;10470763;28;20059;-40
2022/06/02 05:17:49;;;;;;;6.63;3.00;;;;;;;;;;10453266;28;20025;-40
2022/06/02 05:23:15;;;;;;;3.67;2.97;;;;;;;;;;10465908;28;20032;-43
2022/06/02 05:28:59;;;;;;;4.70;2.90;;;;;;;;;;10484875;28;20071;-40
2022/06/02 05:34:27;;;;;;;4.88;3.15;;;;;;;;;;10488650;28;20056;-42
2022/06/02 05:39:57;;;;;;;;;;;;;;;;;;10464904;28;20497;-43
2022/06/02 05:45:08;;;;;;;5.28;3.45;;;;;;;;;;10421338;28;19916;-40
2022/06/02 05:50:32;;;;;;;7.78;3.42;;;;;;;;;;10480560;28;20119;-43
2022/06/02 05:56:04;;;;;;;5.47;3.10;;;;;;;;;;10489425;28;20052;-42
2022/06/02 06:01:31;;;;;;;3.65;3.10;;;;;;;;;;10479240;28;20040;-43
2022/06/02 06:07:24;;;;;;;7.10;3.13;;;;;;;;;;10485973;28;20157;-42
2022/06/02 06:13:11;;;;;;;6.97;3.47;;;;;;;;;;10444427;28;20048;-42
2022/06/02 06:18:49;;;;;;;6.57;3.47;;;;;;;;;;10481268;28;20027;-42
2022/06/02 06:23:56;;;;;;;6.25;3.60;;;;;;;;;;10457573;28;20032;-40
2022/06/02 06:29:27;;;;;;;5.40;2.95;;;;;;;;;;10485594;28;20067;-43
2022/06/02 06:34:56;;;;;;;5.82;3.47;;;;;;;;;;10481012;28;20024;-40
2022/06/02 06:40:24;;;;;;;9.32;4.20;;;;;;;;;;10475547;28;20108;-45
2022/06/02 06:45:36;;;;;;;;;;;;;;;;;;10480238;28;20048;-41
2022/06/02 06:51:19;;;;;;;18.48;8.38;;;;;;;;;;10480955;28;19917;-43
2022/06/02 06:56:44;;;;;;;14.70;8.43;;;;;;;;;;10437825;28;20493;-43
2022/06/02 07:02:21;;;;;;;11.98;7.45;;;;;;;;;;10466946;28;20392;-41
2022/06/02 07:07:54;;;;;;;14.40;9.90;;;;;;;;;;10463344;28;20126;-42
2022/06/02 07:13:11;;;;;;;19.13;10.23;;;;;;;;;;10445403;28;20048;-43
2022/06/02 07:18:50;;;;;;;23.48;13.23;;;;;;;;;;10479061;28;20568;-43
2022/06/02 07:24:18;;;;;;;21.63;12.27;;;;;;;;;;10457297;28;20112;-45
2022/06/02 07:29:30;;;;;;;24.40;12.40;;;;;;;;;;10470265;28;20028;-43
2022/06/02 07:34:46;;;;;;;26.42;13.73;;;;;;;;;;10480741;28;20036;-44
2022/06/02 07:40:28;;;;;;;31.52;14.68;;;;;;;;;;10484797;28;20054;-43
2022/06/02 07:45:41;;;;;;;24.45;14.20;;;;;;;;;;10491387;28;20072;-44
2022/06/02 07:51:25;;;;;;;36.53;14.48;;;;;;;;;;10495282;28;20028;-48
2022/06/02 07:56:44;;;;;;;24.00;13.93;;;;;;;;;;10484555;28;20098;-43
2022/06/02 08:02:26;;;;;;;25.75;13.43;;;;;;;;;;10488213;28;20036;-40
2022/06/02 08:07:52;;;;;;;25.50;13.07;;;;;;;;;;10460948;28;20059;-43
2022/06/02 08:13:11;;;;;;;28.77;11.57;;;;;;;;;;10486460;28;20028;-42
2022/06/02 08:18:36;;;;;;;29.63;13.02;;;;;;;;;;10490208;28;20682;-40
2022/06/02 08:24:51;;;;;;;29.17;12.82;;;;;;;;;;10490900;28;20028;-41
2022/06/02 08:30:10;;;;;;;19.88;11.43;;;;;;;;;;10428975;28;20139;-43
2022/06/02 08:35:38;;;;;;;19.25;10.70;;;;;;;;;;10488717;28;20024;-41
2022/06/02 08:40:56;;;;;;;22.10;10.83;;;;;;;;;;10477648;28;20044;-42
2022/06/02 08:46:10;;;;;;;25.48;10.35;;;;;;;;;;10489911;28;20071;-43
2022/06/02 08:51:32;;;;;;;20.15;10.80;;;;;;;;;;10493433;28;20032;-40
2022/06/02 08:56:55;;;;;;;29.23;11.38;;;;;;;;;;10489853;28;20456;-40
2022/06/02 09:02:37;;;;;;;22.08;11.05;;;;;;;;;;10467225;28;20025;-41
2022/06/02 09:08:03;;;;;;;25.88;10.75;;;;;;;;;;10465314;28;20348;-41
2022/06/02 09:13:32;;;;;;;18.35;9.57;;;;;;;;;;10486869;28;20124;-42
2022/06/02 09:18:50;;;;;;;18.52;10.35;;;;;;;;;;10475924;28;20036;-42
2022/06/02 09:24:18;;;;;;;16.00;9.37;;;;;;;;;;10491661;28;20085;-41
2022/06/02 09:29:46;;;;;;;19.33;9.00;;;;;;;;;;10465109;28;20051;-42
2022/06/02 09:35:11;;;;;;;18.05;8.95;;;;;;;;;;10466898;28;20047;-41
2022/06/02 09:40:26;;;;;;;15.18;9.43;;;;;;;;;;10483765;28;20063;-42
2022/06/02 09:45:45;;;;;;;20.13;9.52;;;;;;;;;;10483345;28;20041;-41
2022/06/02 09:51:03;;;;;;;19.23;8.75;;;;;;;;;;10462858;28;20495;-43
2022/06/02 09:56:53;;;;;;;14.50;8.13;;;;;;;;;;10488019;28;20031;-43
2022/06/02 10:02:16;;;;;;;16.83;8.13;;;;;;;;;;10484322;28;20048;-41
2022/06/02 10:07:42;;;;;;;18.15;8.43;;;;;;;;;;10462688;28;20071;-42
2022/06/02 10:13:26;;;;;;;12.32;8.25;;;;;;;;;;10489873;28;20032;-45
2022/06/02 10:19:00;;;;;;;18.20;7.93;;;;;;;;;;10487475;28;20491;-43
2022/06/02 10:24:31;;;;;;;12.48;7.82;;;;;;;;;;10471324;28;20024;-43
2022/06/02 10:30:09;;;;;;;16.70;8.23;;;;;;;;;;10474592;28;20036;-45
2022/06/02 10:35:31;;;;;;;15.38;9.05;;;;;;;;;;10465531;28;20024;-41
2022/06/02 10:41:03;;;;;;;11.75;7.78;;;;;;;;;;10483516;28;20020;-45
2022/06/02 10:46:38;;;;;;;18.10;8.32;;;;;;;;;;10458856;28;20088;-43
2022/06/02 10:52:10;;;;;;;15.90;7.60;;;;;;;;;;10478159;28;20105;-43
2022/06/02 10:57:25;;;;;;;11.55;7.25;;;;;;;;;;10482589;28;20037;-41
2022/06/02 11:03:13;;;;;;;13.15;8.27;;;;;;;;;;10485366;28;20032;-41
2022/06/02 11:08:47;;;;;;;;;;;;;;;;;;10464632;28;20052;-41
2022/06/02 11:14:41;;;;;;;15.57;7.40;;;;;;;;;;10478100;28;19923;-41
2022/06/02 11:20:22;;;;;;;13.13;8.10;;;;;;;;;;10483302;28;20119;-41
2022/06/02 11:25:30;;;;;;;12.25;7.75;;;;;;;;;;10485978;28;20085;-43
2022/06/02 11:31:08;;;;;;;11.15;7.00;;;;;;;;;;10471570;28;20022;-42
2022/06/02 11:36:37;;;;;;;13.70;7.78;;;;;;;;;;10495244;28;20074;-43
2022/06/02 11:41:49;;;;;;;14.05;7.28;;;;;;;;;;10464304;28;20111;-41
2022/06/02 11:46:59;;;;;;;10.57;6.85;;;;;;;;;;10449228;28;20136;-42
2022/06/02 11:52:43;;;;;;;8.90;7.22;;;;;;;;;;10443821;28;20060;-41
2022/06/02 11:58:16;;;;;;;11.65;6.70;;;;;;;;;;10446384;28;20114;-41
2022/06/02 12:03:45;;;;;;;9.23;7.10;;;;;;;;;;10437716;28;20124;-42
2022/06/02 12:09:07;;;;;;;13.65;7.28;;;;;;;;;;10442353;28;20086;-44
2022/06/02 12:14:22;;;;;;;10.63;7.28;;;;;;;;;;10443434;28;20025;-43
2022/06/02 12:19:41;;;;;;;8.88;6.55;;;;;;;;;;10448823;28;20041;-42
2022/06/02 12:25:22;;;;;;;8.82;6.70;;;;;;;;;;10439805;28;20055;-42
2022/06/02 12:30:47;;;;;;;11.07;6.95;;;;;;;;;;10444061;28;20051;-41
2022/06/02 12:36:14;;;;;;;8.80;6.85;;;;;;;;;;10450156;28;20495;-43
2022/06/02 12:41:42;;;;;;;11.60;6.47;;;;;;;;;;10446314;28;20033;-44
2022/06/02 12:47:07;;;;;;;;;;;;;;;;;;10446744;28;20136;-42
2022/06/02 12:52:32;;;;;;;9.45;6.22;;;;;;;;;;10444517;28;19916;-42
2022/06/02 12:58:03;;;;;;;10.45;6.70;;;;;;;;;;10448174;28;20431;-44
2022/06/02 13:03:48;;;;;;;8.15;6.90;;;;;;;;;;10438750;28;20527;-48
2022/06/02 13:09:33;;;;;;;10.60;6.28;;;;;;;;;;10440087;28;20068;-47
2022/06/02 13:15:30;;;;;;;12.70;5.95;;;;;;;;;;10405209;28;20438;-48
2022/06/02 13:20:40;;;;;;;9.73;6.55;;;;;;;;;;10338137;28;20053;-44
2022/06/02 13:26:09;;;;;;;7.85;6.22;;;;;;;;;;10351318;28;20425;-43
2022/06/02 13:31:47;;;;;;;7.25;5.95;;;;;;;;;;10327777;28;20044;-45
2022/06/02 13:37:09;;;;;;;7.40;6.00;;;;;;;;;;10346461;28;20043;-42
2022/06/02 13:42:29;;;;;;;6.28;5.68;;;;;;;;;;10356016;28;20069;-44
2022/06/02 13:48:05;;;;;;;6.13;5.47;;;;;;;;;;10347720;28;20073;-42
2022/06/02 13:53:28;;;;;;;8.82;6.10;;;;;;;;;;10430112;28;20033;-44
2022/06/02 13:59:12;;;;;;;12.15;5.63;;;;;;;;;;10444349;28;20621;-42
2022/06/02 14:04:21;;;;;;;6.03;5.13;;;;;;;;;;10438506;28;20299;-43
2022/06/02 14:09:56;;;;;;;8.02;5.85;;;;;;;;;;10441439;28;20033;-45
2022/06/02 14:15:31;;;;;;;6.97;5.50;;;;;;;;;;10442562;28;20456;-44
2022/06/02 14:20:45;;;;;;;8.88;5.82;;;;;;;;;;10446481;28;20036;-43
2022/06/02 14:26:09;;;;;;;8.45;6.07;;;;;;;;;;10424581;28;20676;-47
2022/06/02 14:31:22;;;;;;;11.52;6.20;;;;;;;;;;10458752;28;20074;-47
2022/06/02 14:36:43;;;;;;;8.38;6.10;;;;;;;;;;10432722;28;20089;-44
2022/06/02 14:42:20;;;;;;;10.63;5.90;;;;;;;;;;10422512;28;20410;-43
2022/06/02 14:47:53;;;;;;;12.13;6.17;;;;;;;;;;10466447;28;20139;-42
2022/06/02 14:53:07;;;;;;;7.43;5.90;;;;;;;;;;10475220;28;20040;-45
2022/06/02 14:58:31;;;;;;;9.18;5.85;;;;;;;;;;10485800;28;20074;-49
2022/06/02 15:04:19;;;;;;;8.20;5.80;;;;;;;;;;10481861;28;20495;-41
2022/06/02 15:09:40;;;;;;;9.40;5.70;;;;;;;;;;10474639;28;20036;-41
2022/06/02 15:15:37;;;;;;;6.85;5.47;;;;;;;;;;10484707;28;20032;-45
2022/06/02 15:21:06;;;;;;;7.90;5.87;;;;;;;;;;10421375;22;20223;-45
2022/06/02 15:26:53;;;;;;;8.25;5.30;;;;;;;;;;10378847;28;20562;-46
2022/06/02 15:33:16;;;;;;;6.75;5.00;;;;;;;;;;10377334;28;20030;-45
2022/06/02 15:38:57;;;;;;;10.20;5.65;;;;;;;;;;10198352;28;20067;-45
2022/06/02 15:44:06;;;;;;;11.32;5.10;;;;;;;;;;10240788;28;20031;-44
2022/06/02 15:49:34;;;;;;;10.40;5.75;;;;;;;;;;10238176;28;20042;-44
2022/06/02 15:55:05;;;;;;;7.65;5.22;;;;;;;;;;10241904;28;20043;-42
2022/06/02 16:00:32;;;;;;;8.02;5.43;;;;;;;;;;10225564;28;20050;-44
2022/06/02 16:05:59;;;;;;;6.88;5.05;;;;;;;;;;10247248;28;20053;-46
2022/06/02 16:11:30;;;;;;;8.60;5.97;;;;;;;;;;10363222;28;20021;-44
2022/06/02 16:17:11;;;;;;;8.00;5.68;;;;;;;;;;10382363;28;20025;-47
2022/06/02 16:22:29;;;;;;;10.30;5.10;;;;;;;;;;10382407;28;20092;-46
2022/06/02 16:28:00;;;;;;;8.48;5.50;;;;;;;;;;10383501;28;20621;-44
2022/06/02 16:33:27;;;;;;;9.48;5.78;;;;;;;;;;10370913;28;20088;-44
2022/06/02 16:38:28;;;;;;;11.30;6.30;;;;;;;;;;10379603;28;20018;-43
2022/06/02 16:43:59;;;;;;;20.33;7.22;;;;;;;;;;10364010;28;20030;-45
2022/06/02 16:49:17;;;;;;;10.30;5.97;;;;;;;;;;10376467;28;20132;-45
2022/06/02 16:54:55;;;;;;;18.35;6.50;;;;;;;;;;10386763;28;20037;-46
2022/06/02 17:00:30;;;;;;;17.50;6.73;;;;;;;;;;10388679;28;20034;-45
2022/06/02 17:06:10;;;;;;;16.25;6.03;;;;;;;;;;10364473;28;20041;-44
2022/06/02 17:11:21;;;;;;;13.18;6.05;;;;;;;;;;10375360;28;20143;-43
2022/06/02 17:17:17;;;;;;;10.95;5.15;;;;;;;;;;10379571;28;20038;-45
2022/06/02 17:22:43;;;;;;;14.88;6.07;;;;;;;;;;10383922;28;20056;-44
2022/06/02 17:28:24;;;;;;;11.73;5.40;;;;;;;;;;10367990;28;20025;-45
2022/06/02 17:34:04;;;;;;;11.30;5.82;;;;;;;;;;10374169;28;20373;-47
2022/06/02 17:39:54;;;;;;;8.52;5.15;;;;;;;;;;10390272;28;20026;-48
2022/06/02 17:45:25;;;;;;;8.50;5.00;;;;;;;;;;10367568;28;20029;-44
2022/06/02 17:50:55;;;;;;;9.20;4.82;;;;;;;;;;10390511;28;20044;-45
2022/06/02 17:56:37;;;;;;;9.43;4.60;;;;;;;;;;10365944;28;20041;-45
2022/06/02 18:02:00;;;;;;;9.40;4.97;;;;;;;;;;10380161;28;20113;-44
2022/06/02 18:07:32;;;;;;;13.70;5.20;;;;;;;;;;10382061;28;20042;-44
2022/06/02 18:12:41;;;;;;;7.47;4.93;;;;;;;;;;10354444;28;20052;-44
2022/06/02 18:18:25;;;;;;;11.55;5.00;;;;;;;;;;10358534;28;20049;-44
2022/06/02 18:23:46;;;;;;;12.07;5.05;;;;;;;;;;10366796;28;20041;-43
2022/06/02 18:29:24;;;;;;;12.00;4.40;;;;;;;;;;10365209;28;20041;-46
2022/06/02 18:35:29;;;;;;;15.43;4.93;;;;;;;;;;10366882;28;20485;-44
2022/06/02 18:41:04;;;;;;;9.07;3.95;;;;;;;;;;10274030;28;20046;-44
2022/06/02 18:46:37;;;;;;;9.45;4.53;;;;;;;;;;10362712;28;20033;-45
2022/06/02 18:52:01;;;;;;;12.70;4.90;;;;;;;;;;10364723;28;20045;-45
2022/06/02 18:57:15;;;;;;;13.85;4.47;;;;;;;;;;10355585;28;20030;-44
2022/06/02 19:02:51;;;;;;;10.73;4.65;;;;;;;;;;10366741;28;20033;-44
2022/06/02 19:13:54;;;;;;;18.33;4.85;;;;;;;;;;10361581;28;20034;-47
2022/06/02 19:19:39;;;;;;;9.95;4.57;;;;;;;;;;10342866;28;20038;-43
2022/06/02 19:24:46;;;;;;;9.68;4.15;;;;;;;;;;10320928;28;20053;-45
2022/06/02 19:29:59;;;;;;;11.27;4.20;;;;;;;;;;10331303;28;20034;-44
2022/06/02 19:35:26;;;;;;;10.57;4.65;;;;;;;;;;10376551;28;20100;-44
2022/06/02 19:41:00;;;;;;;10.23;3.73;;;;;;;;;;10359160;28;20030;-48
2022/06/02 19:46:25;;;;;;;7.60;4.00;;;;;;;;;;10383333;28;20037;-47
2022/06/02 19:51:30;;;;;;;9.68;4.10;;;;;;;;;;10365890;28;20440;-46
2022/06/02 19:56:40;;;;;;;8.07;3.65;;;;;;;;;;10389217;28;20030;-45
2022/06/02 20:01:47;;;;;;;8.07;4.00;;;;;;;;;;10366209;28;20025;-45
2022/06/02 20:07:16;;;;;;;10.30;3.90;;;;;;;;;;10375949;28;20133;-44
2022/06/02 20:12:20;;;;;;;8.27;4.30;;;;;;;;;;10390032;28;20524;-45
2022/06/02 20:17:30;;;;;;;8.20;3.63;;;;;;;;;;10381443;28;20041;-45
2022/06/02 20:22:44;;;;;;;10.55;3.90;;;;;;;;;;10401727;28;20044;-46
2022/06/02 20:27:49;;;;;;;6.30;3.80;;;;;;;;;;10349243;28;20037;-45
2022/06/02 20:32:59;;;;;;;6.25;3.55;;;;;;;;;;10368073;28;20486;-43
2022/06/02 20:38:34;;;;;;;6.03;3.70;;;;;;;;;;10393386;28;20033;-44
2022/06/02 20:44:03;;;;;;;6.72;3.63;;;;;;;;;;10389532;28;20627;-46
2022/06/02 20:49:16;;;;;;;7.32;3.50;;;;;;;;;;10391788;28;20128;-44
2022/06/02 20:54:26;;;;;;;10.23;4.40;;;;;;;;;;10367946;28;20366;-44
2022/06/02 20:59:40;;;;;;;9.23;3.70;;;;;;;;;;10391464;28;20037;-45
2022/06/02 21:04:49;;;;;;;8.68;3.65;;;;;;;;;;10399233;28;20053;-44
2022/06/02 21:10:05;;;;;;;4.47;3.30;;;;;;;;;;10386689;28;20481;-44
2022/06/02 21:15:18;;;;;;;6.95;3.60;;;;;;;;;;10381510;28;20022;-43
2022/06/02 21:20:29;;;;;;;5.90;3.85;;;;;;;;;;10364350;28;20085;-46
2022/06/02 21:26:01;;;;;;;7.68;3.65;;;;;;;;;;10385729;28;20092;-45
2022/06/02 21:31:33;;;;;;;12.30;4.78;;;;;;;;;;10368191;28;20069;-42
2022/06/02 21:36:50;;;;;;;23.67;6.50;;;;;;;;;;10355982;28;20041;-42
2022/06/02 21:41:52;;;;;;;23.97;7.17;;;;;;;;;;10346523;28;20034;-44
2022/06/02 21:47:16;;;;;;;24.20;5.18;;;;;;;;;;10366346;28;20037;-40
2022/06/02 21:52:23;;;;;;;23.48;5.20;;;;;;;;;;10362337;28;20695;-42
2022/06/02 21:57:34;;;;;;;17.40;4.97;;;;;;;;;;10362041;28;20433;-45
2022/06/02 22:02:56;;;;;;;13.40;4.30;;;;;;;;;;10342267;28;20482;-44
2022/06/02 22:08:31;;;;;;;15.88;4.72;;;;;;;;;;10359956;28;20044;-44
2022/06/02 22:13:58;;;;;;;14.68;4.40;;;;;;;;;;10343396;28;20124;-44
2022/06/02 22:19:24;;;;;;;10.97;3.70;;;;;;;;;;10359291;28;20077;-46
2022/06/02 22:24:58;;;;;;;9.27;3.80;;;;;;;;;;10346683;28;20512;-45
2022/06/02 22:30:36;;;;;;;20.92;4.28;;;;;;;;;;10362996;28;20026;-46
2022/06/02 22:36:07;;;;;;;17.02;3.72;;;;;;;;;;10360847;28;20049;-43
2022/06/02 22:41:15;;;;;;;7.95;3.75;;;;;;;;;;10353131;28;20037;-45
2022/06/02 22:46:33;;;;;;;7.40;3.65;;;;;;;;;;10342266;28;20026;-45
2022/06/02 22:51:52;;;;;;;;;;;;;;;;;;10367856;28;20126;-45
2022/06/02 22:57:50;;;;;;;4.47;3.15;;;;;;;;;;10384210;28;20400;-47
2022/06/02 23:03:28;;;;;;;6.55;3.95;;;;;;;;;;10333859;28;20048;-46
2022/06/02 23:08:44;;;;;;;7.72;3.72;;;;;;;;;;10360610;28;20034;-46
2022/06/02 23:14:03;;;;;;;6.18;3.58;;;;;;;;;;10365854;28;20029;-46
2022/06/02 23:19:25;;;;;;;8.02;3.50;;;;;;;;;;10379848;28;20092;-47
2022/06/02 23:24:38;;;;;;;7.68;3.70;;;;;;;;;;10380527;28;20034;-43
2022/06/02 23:30:02;;;;;;;4.88;3.25;;;;;;;;;;10378151;28;20042;-44
2022/06/02 23:35:17;;;;;;;6.10;3.08;;;;;;;;;;10386761;28;20479;-43
2022/06/02 23:40:23;;;;;;;9.60;3.15;;;;;;;;;;10372697;28;20048;-42
2022/06/02 23:45:50;;;;;;;5.45;3.05;;;;;;;;;;10382682;28;20049;-44
2022/06/02 23:51:32;;;;;;;4.72;2.97;;;;;;;;;;10382482;28;20156;-44
2022/06/02 23:57:16;;;;;;;5.70;2.97;;;;;;;;;;10379232;28;20056;-44
